Time;durP1;ratioP1;P1;durP2;ratioP2;P2;SDS_P1;SDS_P2;PMS_P1;PMS_P2;Temp;Humidity;BMP_temperature;BMP_pressure;BME280_temperature;BME280_humidity;BME280_pressure;Samples;Min_cycle;Max_cycle;Signal;HPM_P1;HPM_P2
2023/03/29 00:01:31;;;;;;;;;;;;;;;0.38;62.46;100361.03;5114410;28;20404;-68
2023/03/29 00:04:03;;;;;;;;;;;;;;;0.39;62.38;100365.25;5114553;28;19931;-66
2023/03/29 00:06:32;;;;;;;;;;;;;;;0.24;62.56;100364.50;5114158;28;20362;-68
2023/03/29 00:09:04;;;;;;;;;;;;;;;0.18;62.80;100359.16;5118122;28;19926;-66
2023/03/29 00:11:34;;;;;;;;;;;;;;;0.27;62.76;100359.59;5118287;28;19951;-68
2023/03/29 00:14:03;;;;;;;;;;;;;;;0.32;62.32;100360.72;5117216;28;20289;-66
2023/03/29 00:16:31;;;;;;;;;;;;;;;0.16;62.64;100365.75;5118025;28;19969;-67
2023/03/29 00:19:00;;;;;;;;;;;;;;;0.03;63.14;100365.88;5117951;28;19926;-66
2023/03/29 00:21:28;;;;;;;;;;;;;;;-0.07;62.91;100369.56;5117945;28;19919;-66
2023/03/29 00:23:57;;;;;;;;;;;;;;;-0.16;62.95;100359.06;5117924;28;19927;-65
2023/03/29 00:26:25;;;;;;;;;;;;;;;-0.17;63.09;100350.66;5117631;28;20373;-65
2023/03/29 00:28:55;;;;;;;;;;;;;;;-0.21;63.24;100358.81;5118098;28;19972;-65
2023/03/29 00:31:24;;;;;;;;;;;;;;;-0.30;63.23;100353.31;5116790;28;19927;-67
2023/03/29 00:33:53;;;;;;;;;;;;;;;-0.32;63.47;100352.38;5118281;28;20008;-65
2023/03/29 00:36:22;;;;;;;;;;;;;;;-0.26;63.61;100352.69;5117633;28;19920;-65
2023/03/29 00:38:50;;;;;;;;;;;;;;;-0.29;63.76;100350.00;5117997;28;20447;-66
2023/03/29 00:41:19;;;;;;;;;;;;;;;-0.39;63.82;100342.81;5117564;28;19930;-66
2023/03/29 00:43:58;;;;;;;;;;;;;;;-0.44;64.13;100345.84;5116401;28;19924;-65
2023/03/29 00:46:29;;;;;;;;;;;;;;;-0.43;64.35;100348.44;5117571;28;19919;-66
2023/03/29 00:49:04;;;;;;;;;;;;;;;-0.41;64.31;100339.38;5116278;28;20361;-65
2023/03/29 00:51:34;;;;;;;;;;;;;;;-0.55;64.41;100342.75;5116336;28;19926;-66
2023/03/29 00:54:05;;;;;;;;;;;;;;;-0.54;64.45;100347.00;5117727;28;19972;-65
2023/03/29 00:56:36;;;;;;;;;;;;;;;-0.50;64.68;100353.91;5117688;28;19919;-67
2023/03/29 00:59:06;;;;;;;;;;;;;;;-0.61;64.55;100354.09;5117281;28;19958;-66
2023/03/29 01:01:41;;;;;;;;;;;;;;;-0.67;64.86;100345.47;5117206;28;19970;-65
2023/03/29 01:04:16;;;;;;;;;;;;;;;-0.67;65.10;100355.50;5117451;28;19923;-68
2023/03/29 01:06:48;;;;;;;;;;;;;;;-0.66;64.83;100356.38;5117505;28;19923;-68
2023/03/29 01:09:21;;;;;;;;;;;;;;;-0.64;65.11;100348.91;5117117;28;20014;-66
2023/03/29 01:11:53;;;;;;;;;;;;;;;-0.63;65.07;100351.53;5116861;28;19920;-66
2023/03/29 01:14:27;;;;;;;;;;;;;;;-0.56;64.99;100351.09;5115837;28;19919;-66
2023/03/29 01:16:58;;;;;;;;;;;;;;;-0.59;64.92;100343.38;5116135;28;19923;-65
2023/03/29 01:19:31;;;;;;;;;;;;;;;-0.55;65.37;100349.44;5114653;28;19924;-66
2023/03/29 01:22:07;;;;;;;;;;;;;;;-0.66;65.22;100348.84;5115628;28;20006;-67
2023/03/29 01:24:49;;;;;;;;;;;;;;;-0.85;65.13;100353.66;5117076;28;20365;-68
2023/03/29 01:27:24;;;;;;;;;;;;;;;-1.00;65.17;100358.66;5115305;28;19924;-66
2023/03/29 01:29:57;;;;;;;;;;;;;;;-1.04;65.37;100355.91;5116725;28;19920;-67
2023/03/29 01:32:34;;;;;;;;;;;;;;;-1.09;65.62;100352.28;5115311;28;19921;-66
2023/03/29 01:35:09;;;;;;;;;;;;;;;-1.16;65.11;100360.22;5116568;28;19919;-66
2023/03/29 01:37:41;;;;;;;;;;;;;;;-1.16;65.23;100355.22;5115574;28;20333;-67
2023/03/29 01:40:10;;;;;;;;;;;;;;;-1.14;65.36;100358.69;5116845;28;19966;-66
2023/03/29 01:42:45;;;;;;;;;;;;;;;-1.14;65.11;100358.69;5116522;28;19923;-67
2023/03/29 01:45:20;;;;;;;;;;;;;;;-1.22;65.23;100354.91;5116406;28;19973;-67
2023/03/29 01:47:54;;;;;;;;;;;;;;;-1.30;65.15;100353.59;5116353;28;19931;-67
2023/03/29 01:50:29;;;;;;;;;;;;;;;-1.31;65.37;100354.34;5116279;28;19927;-66
2023/03/29 01:53:00;;;;;;;;;;;;;;;-1.36;65.85;100359.09;5116118;28;20032;-66
2023/03/29 01:55:32;;;;;;;;;;;;;;;-1.31;65.44;100365.25;5116218;28;19923;-66
2023/03/29 01:58:02;;;;;;;;;;;;;;;-1.29;65.36;100362.81;5116177;28;19920;-67
2023/03/29 02:00:35;;;;;;;;;;;;;;;-1.43;65.54;100355.41;5116098;28;20366;-66
2023/03/29 02:03:06;;;;;;;;;;;;;;;-1.48;65.89;100354.25;5114909;28;19919;-68
2023/03/29 02:05:37;;;;;;;;;;;;;;;-1.48;65.79;100366.78;5116222;28;19988;-65
2023/03/29 02:08:07;;;;;;;;;;;;;;;-1.46;65.95;100362.72;5116252;28;20019;-68
2023/03/29 02:10:36;;;;;;;;;;;;;;;-1.39;65.92;100357.28;5114950;28;19965;-66
2023/03/29 02:13:05;;;;;;;;;;;;;;;-1.50;66.21;100363.34;5114567;28;19951;-66
2023/03/29 02:15:36;;;;;;;;;;;;;;;-1.45;66.56;100356.94;5116089;28;20369;-66
2023/03/29 02:18:05;;;;;;;;;;;;;;;-1.48;66.23;100361.78;5115746;28;19920;-67
2023/03/29 02:20:37;;;;;;;;;;;;;;;-1.47;66.69;100357.63;5114944;28;20372;-68
2023/03/29 02:23:09;;;;;;;;;;;;;;;-1.39;66.40;100359.78;5114853;28;19919;-66
2023/03/29 02:25:37;;;;;;;;;;;;;;;-1.49;66.25;100365.03;5114135;28;19919;-66
2023/03/29 02:28:06;;;;;;;;;;;;;;;-1.77;66.86;100361.72;5115452;28;19923;-67
2023/03/29 02:30:39;;;;;;;;;;;;;;;-1.90;67.04;100374.28;5114033;28;20357;-66
2023/03/29 02:33:11;;;;;;;;;;;;;;;-2.01;67.01;100372.78;5114171;28;19927;-68
2023/03/29 02:35:47;;;;;;;;;;;;;;;-1.94;67.27;100374.88;5115648;28;20292;-65
2023/03/29 02:38:16;;;;;;;;;;;;;;;-1.96;67.06;100378.91;5115671;28;20284;-68
2023/03/29 02:40:45;;;;;;;;;;;;;;;-2.03;67.15;100377.69;5115320;28;19919;-67
2023/03/29 02:43:15;;;;;;;;;;;;;;;-1.95;67.52;100377.28;5115238;28;19926;-68
2023/03/29 02:45:46;;;;;;;;;;;;;;;-1.99;67.43;100368.72;5114546;28;19951;-68
2023/03/29 02:48:16;;;;;;;;;;;;;;;-2.10;67.64;100363.09;5114300;28;19926;-67
2023/03/29 02:50:47;;;;;;;;;;;;;;;-1.92;67.72;100365.81;5113967;28;20006;-67
2023/03/29 02:53:17;;;;;;;;;;;;;;;-1.89;67.15;100360.13;5115012;28;19920;-67
2023/03/29 02:55:47;;;;;;;;;;;;;;;-1.94;67.62;100369.88;5113907;28;19958;-66
2023/03/29 02:58:16;;;;;;;;;;;;;;;-1.94;67.84;100362.34;5113753;28;20365;-68
2023/03/29 03:00:48;;;;;;;;;;;;;;;-1.98;68.10;100360.47;5113723;28;19927;-67
2023/03/29 03:03:16;;;;;;;;;;;;;;;-1.85;67.84;100362.94;5115266;28;20354;-69
2023/03/29 03:05:49;;;;;;;;;;;;;;;-1.88;67.76;100362.75;5113887;28;19964;-66
2023/03/29 03:08:17;;;;;;;;;;;;;;;-1.82;67.77;100375.59;5113821;28;19955;-66
2023/03/29 03:10:47;;;;;;;;;;;;;;;-1.90;67.95;100374.28;5115033;28;20388;-68
2023/03/29 03:13:16;;;;;;;;;;;;;;;-1.93;67.63;100384.09;5114953;28;19988;-68
2023/03/29 03:15:47;;;;;;;;;;;;;;;-1.98;67.73;100380.47;5113394;28;20361;-69
2023/03/29 03:18:17;;;;;;;;;;;;;;;-2.08;67.89;100370.69;5114707;28;19959;-68
2023/03/29 03:20:54;;;;;;;;;;;;;;;-2.06;67.79;100376.63;5113358;28;19919;-69
2023/03/29 03:23:23;;;;;;;;;;;;;;;-2.12;67.92;100376.28;5113987;28;19920;-68
2023/03/29 03:25:52;;;;;;;;;;;;;;;-2.23;67.98;100372.28;5113033;28;19920;-68
2023/03/29 03:28:22;;;;;;;;;;;;;;;-2.15;68.01;100371.09;5114575;28;19924;-67
2023/03/29 03:30:53;;;;;;;;;;;;;;;-2.13;68.46;100379.53;5114526;28;20430;-66
2023/03/29 03:33:27;;;;;;;;;;;;;;;-2.11;68.26;100373.00;5114399;28;19920;-67
2023/03/29 03:36:24;;;;;;;;;;;;;;;-2.14;67.87;100372.84;5114421;28;20342;-67
2023/03/29 03:38:55;;;;;;;;;;;;;;;-2.27;67.87;100367.84;5114484;28;19969;-68
2023/03/29 03:41:24;;;;;;;;;;;;;;;-2.21;68.54;100376.56;5114536;28;20285;-67
2023/03/29 03:43:54;;;;;;;;;;;;;;;-2.22;68.15;100369.88;5121113;28;19925;-70
2023/03/29 03:46:24;;;;;;;;;;;;;;;-2.33;67.91;100375.00;5120254;28;19968;-69
2023/03/29 03:48:58;;;;;;;;;;;;;;;-2.32;68.04;100371.69;5121164;28;19920;-69
2023/03/29 03:51:32;;;;;;;;;;;;;;;-2.34;68.06;100373.25;5120224;28;20258;-68
2023/03/29 03:54:01;;;;;;;;;;;;;;;-2.34;68.48;100378.25;5119811;28;20384;-68
2023/03/29 03:56:36;;;;;;;;;;;;;;;-2.28;68.69;100373.63;5121083;27;20284;-67
2023/03/29 03:59:05;;;;;;;;;;;;;;;-2.21;68.79;100375.75;5121320;28;20070;-66
2023/03/29 04:01:46;;;;;;;;;;;;;;;-2.25;68.62;100374.66;5121047;27;19954;-66
2023/03/29 04:04:19;;;;;;;;;;;;;;;-2.28;68.75;100373.63;5121710;27;19920;-67
2023/03/29 04:07:01;;;;;;;;;;;;;;;-2.19;68.78;100374.19;5121363;27;19920;-66
2023/03/29 04:09:40;;;;;;;;;;;;;;;-2.17;68.63;100377.63;5121308;27;20036;-69
2023/03/29 04:12:29;;;;;;;;;;;;;;;-2.20;68.58;100370.81;5109648;28;19920;-67
2023/03/29 04:14:57;;;;;;;;;;;;;;;-2.22;68.18;100367.38;5119700;28;20389;-67
2023/03/29 04:17:29;;;;;;;;;;;;;;;-2.22;68.63;100364.00;5120773;27;19920;-67
2023/03/29 04:20:07;;;;;;;;;;;;;;;-2.27;68.59;100370.34;5119935;28;19920;-66
2023/03/29 04:22:36;;;;;;;;;;;;;;;-2.25;68.50;100371.31;5120041;28;19965;-67
2023/03/29 04:25:07;;;;;;;;;;;;;;;-2.27;68.58;100372.84;5119578;28;19919;-69
2023/03/29 04:27:46;;;;;;;;;;;;;;;-2.28;68.40;100378.63;5120868;28;19981;-68
2023/03/29 04:30:26;;;;;;;;;;;;;;;-2.29;68.65;100381.88;5120746;27;19923;-66
2023/03/29 04:33:02;;;;;;;;;;;;;;;-2.31;68.88;100375.94;5121007;28;19959;-67
2023/03/29 04:35:32;;;;;;;;;;;;;;;-2.32;69.04;100384.19;5120739;28;19923;-66
2023/03/29 04:38:03;;;;;;;;;;;;;;;-2.27;69.00;100385.34;5120005;28;20383;-66
2023/03/29 04:40:32;;;;;;;;;;;;;;;-2.26;69.25;100382.09;5119514;28;19923;-69
2023/03/29 04:43:24;;;;;;;;;;;;;;;-2.16;68.76;100384.38;5119601;28;20326;-65
2023/03/29 04:46:02;;;;;;;;;;;;;;;-2.14;68.76;100392.81;5102789;28;19924;-67
2023/03/29 04:48:50;;;;;;;;;;;;;;;-2.17;68.33;100396.00;5119827;28;19924;-69
2023/03/29 04:51:27;;;;;;;;;;;;;;;-2.16;68.69;100394.38;5120866;27;19920;-70
2023/03/29 04:53:55;;;;;;;;;;;;;;;-2.13;69.08;100399.53;5117702;28;20377;-68
2023/03/29 04:56:25;;;;;;;;;;;;;;;-2.08;68.94;100393.19;5116605;28;19920;-68
2023/03/29 04:59:13;;;;;;;;;;;;;;;-2.00;68.92;100402.03;5117410;28;20346;-68
2023/03/29 05:01:42;;;;;;;;;;;;;;;-1.90;68.86;100398.44;5115868;28;19947;-67
2023/03/29 05:04:13;;;;;;;;;;;;;;;-1.86;69.06;100395.34;5117123;28;19925;-69
2023/03/29 05:06:56;;;;;;;;;;;;;;;-1.83;68.85;100386.38;5117160;28;19919;-67
2023/03/29 05:09:25;;;;;;;;;;;;;;;-1.75;68.34;100387.69;5115834;28;19919;-67
2023/03/29 05:11:54;;;;;;;;;;;;;;;-1.70;68.21;100383.81;5116008;28;19970;-68
2023/03/29 05:14:24;;;;;;;;;;;;;;;-1.66;68.17;100395.75;5116081;28;19920;-67
2023/03/29 05:16:53;;;;;;;;;;;;;;;-1.60;68.07;100393.59;5115700;28;19928;-68
2023/03/29 05:19:23;;;;;;;;;;;;;;;-1.55;68.04;100389.72;5115615;28;20365;-66
2023/03/29 05:21:51;;;;;;;;;;;;;;;-1.51;67.94;100376.59;5116013;28;19923;-69
2023/03/29 05:24:23;;;;;;;;;;;;;;;-1.46;68.02;100375.22;5116745;28;19969;-67
2023/03/29 05:27:01;;;;;;;;;;;;;;;-1.42;67.88;100382.13;5116683;28;19927;-69
2023/03/29 05:29:33;;;;;;;;;;;;;;;-1.42;67.59;100384.63;5115745;28;19923;-68
2023/03/29 05:32:28;;;;;;;;;;;;;;;-1.37;67.40;100385.75;5111590;28;19958;-67
2023/03/29 05:34:58;;;;;;;;;;;;;;;-1.31;67.36;100392.78;5116561;28;20026;-69
2023/03/29 05:37:27;;;;;;;;;;;;;;;-1.36;67.47;100387.50;5115291;28;19923;-66
2023/03/29 05:39:59;;;;;;;;;;;;;;;-1.38;67.57;100384.06;5116513;28;19920;-69
2023/03/29 05:42:41;;;;;;;;;;;;;;;-1.36;67.65;100390.00;5115511;28;19941;-68
2023/03/29 05:45:11;;;;;;;;;;;;;;;-1.32;67.71;100393.56;5115187;28;19962;-69
2023/03/29 05:47:41;;;;;;;;;;;;;;;-1.24;67.59;100392.34;5116319;28;19919;-66
2023/03/29 05:50:11;;;;;;;;;;;;;;;-1.13;67.60;100391.34;5115015;28;20002;-66
2023/03/29 05:52:40;;;;;;;;;;;;;;;-1.09;67.41;100392.34;5115020;28;19924;-69
2023/03/29 05:55:09;;;;;;;;;;;;;;;-1.06;67.66;100390.03;5116026;28;19920;-68
2023/03/29 05:57:38;;;;;;;;;;;;;;;-1.02;67.37;100390.28;5114933;28;19926;-68
2023/03/29 06:00:14;;;;;;;;;;;;;;;-0.95;67.42;100384.84;5115506;28;19920;-66
2023/03/29 06:02:44;;;;;;;;;;;;;;;-0.88;67.52;100394.41;5114741;28;19919;-66
2023/03/29 06:05:15;;;;;;;;;;;;;;;-0.79;67.35;100389.03;5115655;28;19955;-68
2023/03/29 06:07:55;;;;;;;;;;;;;;;-0.76;67.11;100391.72;5116189;28;19920;-67
2023/03/29 06:10:35;;;;;;;;;;;;;;;-0.76;66.98;100390.09;5115888;28;19998;-68
2023/03/29 06:13:25;;;;;;;;;;;;;;;-0.80;66.76;100388.19;5116013;28;20430;-66
2023/03/29 06:15:53;;;;;;;;;;;;;;;-0.96;66.92;100384.75;5114872;28;20298;-65
2023/03/29 06:18:25;;;;;;;;;;;;;;;-1.08;67.00;100374.91;5114531;28;19919;-67
2023/03/29 06:20:54;;;;;;;;;;;;;;;-1.01;67.43;100383.63;5115590;28;19931;-66
2023/03/29 06:23:23;;;;;;;;;;;;;;;-0.99;67.72;100384.59;5115956;28;19930;-66
2023/03/29 06:25:52;;;;;;;;;;;;;;;-0.97;67.37;100393.03;5114359;28;19973;-67
2023/03/29 06:28:22;;;;;;;;;;;;;;;-0.93;67.67;100389.91;5115611;28;19923;-66
2023/03/29 06:30:52;;;;;;;;;;;;;;;-0.87;68.05;100395.28;5114082;28;19919;-66
2023/03/29 06:33:21;;;;;;;;;;;;;;;-0.86;67.87;100392.00;5095591;28;19919;-66
2023/03/29 06:35:58;;;;;;;;;;;;;;;-0.68;68.15;100393.03;5093725;28;19924;-67
2023/03/29 06:38:29;;;;;;;;;;;;;;;-0.44;67.95;100399.38;5095523;28;20423;-67
2023/03/29 06:41:10;;;;;;;;;;;;;;;-0.38;68.01;100397.19;5095423;28;20019;-66
2023/03/29 06:43:50;;;;;;;;;;;;;;;-0.28;67.53;100396.91;5095282;28;19920;-66
2023/03/29 06:46:22;;;;;;;;;;;;;;;-0.21;67.78;100388.91;5114562;28;20021;-67
2023/03/29 06:48:56;;;;;;;;;;;;;;;-0.15;67.73;100394.28;5115376;28;20010;-66
2023/03/29 06:51:34;;;;;;;;;;;;;;;-0.01;67.66;100403.38;5115514;28;19919;-66
2023/03/29 06:54:04;;;;;;;;;;;;;;;0.19;67.38;100406.06;5113925;28;20361;-65
2023/03/29 06:56:34;;;;;;;;;;;;;;;0.35;67.00;100413.59;5115288;28;19927;-66
2023/03/29 06:59:07;;;;;;;;;;;;;;;0.58;67.32;100420.63;5114978;28;19926;-66
2023/03/29 07:01:47;;;;;;;;;;;;;;;0.74;66.55;100418.13;5115097;28;19945;-66
2023/03/29 07:04:26;;;;;;;;;;;;;;;0.90;66.24;100418.06;5115275;28;20368;-67
2023/03/29 07:07:18;;;;;;;;;;;;;;;1.15;65.91;100418.47;5114769;28;19920;-66
2023/03/29 07:09:54;;;;;;;;;;;;;;;1.34;66.04;100423.59;5113729;28;19926;-64
2023/03/29 07:12:26;;;;;;;;;;;;;;;1.44;65.36;100429.06;5115004;28;19926;-64
2023/03/29 07:14:59;;;;;;;;;;;;;;;1.58;65.20;100433.09;5109910;28;19927;-65
2023/03/29 07:17:48;;;;;;;;;;;;;;;1.63;63.99;100431.66;5093083;28;19950;-65
2023/03/29 07:20:18;;;;;;;;;;;;;;;1.68;63.98;100430.22;5111594;28;20020;-64
2023/03/29 07:22:52;;;;;;;;;;;;;;;1.76;63.73;100433.94;5114470;28;19926;-64
2023/03/29 07:25:22;;;;;;;;;;;;;;;1.78;63.31;100424.78;5113409;28;19920;-64
2023/03/29 07:27:50;;;;;;;;;;;;;;;1.96;62.89;100423.13;5113043;28;19980;-65
2023/03/29 07:30:20;;;;;;;;;;;;;;;2.11;63.16;100421.31;5113300;28;19923;-64
2023/03/29 07:32:54;;;;;;;;;;;;;;;2.22;62.28;100426.81;5114680;28;20331;-64
2023/03/29 07:35:29;;;;;;;;;;;;;;;2.35;62.49;100424.03;5114370;28;19927;-65
2023/03/29 07:38:00;;;;;;;;;;;;;;;2.43;62.58;100423.56;5113215;28;19920;-64
2023/03/29 07:40:30;;;;;;;;;;;;;;;2.51;62.37;100419.72;5113730;28;19981;-65
2023/03/29 07:42:58;;;;;;;;;;;;;;;2.85;61.74;100414.47;5114327;28;19934;-64
2023/03/29 07:45:31;;;;;;;;;;;;;;;2.82;60.55;100418.50;5114712;28;20014;-65
2023/03/29 07:48:05;;;;;;;;;;;;;;;2.99;60.70;100417.53;5113011;28;19923;-65
2023/03/29 07:50:45;;;;;;;;;;;;;;;3.08;59.07;100415.38;5105853;28;20285;-65
2023/03/29 07:53:16;;;;;;;;;;;;;;;3.28;59.23;100412.00;5093845;28;19969;-65
2023/03/29 07:55:47;;;;;;;;;;;;;;;3.44;57.93;100414.31;5092824;28;19930;-64
2023/03/29 07:58:36;;;;;;;;;;;;;;;3.52;56.28;100417.16;5093743;28;19920;-64
2023/03/29 08:01:07;;;;;;;;;;;;;;;3.53;55.26;100412.16;5094007;28;20006;-65
2023/03/29 08:03:49;;;;;;;;;;;;;;;3.61;55.61;100408.28;5092764;28;20385;-65
2023/03/29 08:06:20;;;;;;;;;;;;;;;3.88;55.57;100419.44;5092669;28;19924;-65
2023/03/29 08:08:51;;;;;;;;;;;;;;;4.04;54.57;100406.56;5093013;28;20001;-65
2023/03/29 08:11:23;;;;;;;;;;;;;;;4.22;54.26;100405.50;5094384;28;19942;-65
2023/03/29 08:14:02;;;;;;;;;;;;;;;4.38;53.40;100408.63;5094978;28;20282;-65
2023/03/29 08:16:40;;;;;;;;;;;;;;;4.47;52.91;100406.44;5106797;28;19920;-65
2023/03/29 08:19:13;;;;;;;;;;;;;;;4.79;52.24;100407.53;5112933;28;20022;-65
2023/03/29 08:22:08;;;;;;;;;;;;;;;4.93;51.46;100401.28;5111801;28;19926;-65
2023/03/29 08:25:01;;;;;;;;;;;;;;;4.95;51.05;100394.59;5113999;28;19992;-65
2023/03/29 08:27:37;;;;;;;;;;;;;;;5.07;51.25;100395.00;5110476;28;20262;-65
2023/03/29 08:30:08;;;;;;;;;;;;;;;5.11;51.18;100386.69;5099572;28;19926;-65
2023/03/29 08:32:38;;;;;;;;;;;;;;;5.42;50.96;100384.31;5103164;28;19942;-65
2023/03/29 08:35:09;;;;;;;;;;;;;;;5.57;50.25;100383.06;5106572;28;20441;-65
2023/03/29 08:37:50;;;;;;;;;;;;;;;5.73;49.46;100390.31;5097938;28;20015;-65
2023/03/29 08:40:22;;;;;;;;;;;;;;;5.82;48.79;100377.91;5097444;28;20266;-65
2023/03/29 08:43:08;;;;;;;;;;;;;;;5.61;47.39;100382.34;5097062;28;20010;-64
2023/03/29 08:45:58;;;;;;;;;;;;;;;5.68;47.20;100386.78;5098202;28;19927;-65
2023/03/29 08:48:29;;;;;;;;;;;;;;;5.87;46.99;100386.56;5104698;28;19927;-65
2023/03/29 08:51:01;;;;;;;;;;;;;;;6.22;47.31;100378.28;5108549;28;20331;-67
2023/03/29 08:53:33;;;;;;;;;;;;;;;6.60;46.30;100377.63;5102722;28;20369;-66
2023/03/29 08:56:16;;;;;;;;;;;;;;;6.96;46.23;100372.63;5096940;28;20288;-65
2023/03/29 08:58:57;;;;;;;;;;;;;;;7.14;45.56;100372.22;5097033;28;20018;-66
2023/03/29 09:01:34;;;;;;;;;;;;;;;7.16;44.48;100375.66;5096836;28;19927;-65
2023/03/29 09:04:07;;;;;;;;;;;;;;;7.44;43.71;100372.91;5097042;28;20016;-66
2023/03/29 09:06:47;;;;;;;;;;;;;;;7.29;42.60;100367.50;5096982;28;19920;-66
2023/03/29 09:09:25;;;;;;;;;;;;;;;7.20;42.08;100367.28;5107484;28;20010;-65
2023/03/29 09:12:03;;;;;;;;;;;;;;;7.24;42.19;100364.88;5112415;28;20284;-66
2023/03/29 09:14:42;;;;;;;;;;;;;;;7.24;42.32;100361.47;5112241;28;20704;-66
2023/03/29 09:17:17;;;;;;;;;;;;;;;7.26;42.50;100357.28;5106248;28;20374;-65
2023/03/29 09:19:49;;;;;;;;;;;;;;;7.50;42.82;100354.44;5113624;28;20046;-65
2023/03/29 09:22:23;;;;;;;;;;;;;;;7.62;42.63;100349.63;5114659;28;19923;-66
2023/03/29 09:24:57;;;;;;;;;;;;;;;7.54;41.85;100349.44;5100807;28;19922;-65
2023/03/29 09:27:30;;;;;;;;;;;;;;;7.74;41.97;100338.06;5094982;28;20378;-65
2023/03/29 09:30:15;;;;;;;;;;;;;;;7.92;41.82;100343.50;5096136;28;19920;-65
2023/03/29 09:32:52;;;;;;;;;;;;;;;7.78;41.86;100338.94;5095008;28;19949;-65
2023/03/29 09:35:30;;;;;;;;;;;;;;;7.81;41.33;100334.81;5094952;28;19920;-65
2023/03/29 09:37:59;;;;;;;;;;;;;;;8.02;42.73;100335.25;5108367;28;19934;-65
2023/03/29 09:40:33;;;;;;;;;;;;;;;8.04;41.96;100338.66;5100381;27;20427;-65
2023/03/29 09:43:13;;;;;;;;;;;;;;;8.17;41.40;100333.81;5103546;28;19927;-65
2023/03/29 09:45:43;;;;;;;;;;;;;;;8.13;40.96;100326.97;5095144;28;20255;-66
2023/03/29 09:48:13;;;;;;;;;;;;;;;8.32;41.77;100331.59;5107548;28;20329;-68
2023/03/29 09:50:50;;;;;;;;;;;;;;;8.57;41.36;100331.22;5095861;28;19986;-65
2023/03/29 09:53:20;;;;;;;;;;;;;;;8.52;40.58;100327.72;5096377;28;19946;-65
2023/03/29 09:56:11;;;;;;;;;;;;;;;8.88;41.14;100318.16;5095838;28;19920;-66
2023/03/29 09:58:52;;;;;;;;;;;;;;;9.10;40.48;100321.91;5094882;28;19955;-66
2023/03/29 10:01:21;;;;;;;;;;;;;;;9.10;40.11;100319.38;5095706;28;19927;-66
2023/03/29 10:03:52;;;;;;;;;;;;;;;9.23;39.89;100323.81;5094332;28;19924;-65
2023/03/29 10:06:24;;;;;;;;;;;;;;;9.17;40.15;100322.03;5102344;28;19923;-66
2023/03/29 10:09:01;;;;;;;;;;;;;;;9.25;40.12;100312.81;5093793;28;20002;-66
2023/03/29 10:11:38;;;;;;;;;;;;;;;9.20;40.12;100301.72;5106007;28;19959;-65
2023/03/29 10:14:13;;;;;;;;;;;;;;;9.06;40.53;100303.19;5114126;28;19927;-65
2023/03/29 10:16:44;;;;;;;;;;;;;;;8.98;40.26;100304.75;5115763;28;20018;-65
2023/03/29 10:19:19;;;;;;;;;;;;;;;9.06;41.13;100299.78;5115820;28;19923;-65
2023/03/29 10:21:49;;;;;;;;;;;;;;;9.06;40.88;100303.19;5115646;28;19920;-65
2023/03/29 10:24:21;;;;;;;;;;;;;;;9.06;40.68;100293.03;5115863;28;19919;-65
2023/03/29 10:26:54;;;;;;;;;;;;;;;9.10;40.45;100289.66;5115573;28;20370;-66
2023/03/29 10:29:25;;;;;;;;;;;;;;;9.17;40.65;100290.63;5115885;28;19967;-66
2023/03/29 10:31:53;;;;;;;;;;;;;;;8.96;40.98;100291.16;5115686;28;19920;-65
2023/03/29 10:34:24;;;;;;;;;;;;;;;8.82;41.25;100292.63;5115465;28;19920;-65
2023/03/29 10:36:56;;;;;;;;;;;;;;;9.13;40.43;100284.63;5115474;28;19969;-65
2023/03/29 10:39:27;;;;;;;;;;;;;;;9.48;40.71;100281.72;5114512;28;19957;-66
2023/03/29 10:41:55;;;;;;;;;;;;;;;9.61;40.55;100284.44;5112575;28;19930;-65
2023/03/29 10:44:28;;;;;;;;;;;;;;;9.90;40.35;100272.06;5115132;28;19920;-65
2023/03/29 10:47:07;;;;;;;;;;;;;;;10.21;39.86;100271.56;5106418;28;19920;-66
2023/03/29 10:49:40;;;;;;;;;;;;;;;10.44;39.30;100272.63;5102077;28;19927;-65
2023/03/29 10:52:09;;;;;;;;;;;;;;;10.30;39.18;100269.09;5115159;28;19966;-65
2023/03/29 10:54:37;;;;;;;;;;;;;;;10.29;38.96;100262.31;5114960;28;20290;-65
2023/03/29 10:57:09;;;;;;;;;;;;;;;10.21;39.77;100258.81;5115370;28;19959;-65
2023/03/29 10:59:49;;;;;;;;;;;;;;;10.35;39.58;100252.16;5114925;28;19923;-65
2023/03/29 11:02:28;;;;;;;;;;;;;;;10.35;39.47;100251.28;5115167;28;20278;-65
2023/03/29 11:05:04;;;;;;;;;;;;;;;10.27;39.63;100243.56;5114920;28;19959;-65
2023/03/29 11:07:34;;;;;;;;;;;;;;;10.37;39.88;100244.50;5099695;28;19920;-66
2023/03/29 11:10:10;;;;;;;;;;;;;;;10.23;39.41;100246.94;5094597;28;20362;-64
2023/03/29 11:12:44;;;;;;;;;;;;;;;10.13;39.16;100240.03;5113649;28;19919;-65
2023/03/29 11:15:23;;;;;;;;;;;;;;;10.13;39.38;100234.91;5114345;28;19972;-65
2023/03/29 11:17:58;;;;;;;;;;;;;;;10.30;39.99;100238.50;5114671;28;19920;-64
2023/03/29 11:20:32;;;;;;;;;;;;;;;10.52;39.48;100219.97;5099232;28;20425;-64
2023/03/29 11:23:07;;;;;;;;;;;;;;;10.68;39.48;100213.28;5100428;28;20017;-64
2023/03/29 11:25:42;;;;;;;;;;;;;;;10.98;39.62;100210.09;5105649;27;20014;-65
2023/03/29 11:28:13;;;;;;;;;;;;;;;11.10;39.21;100210.16;5094026;28;19920;-64
2023/03/29 11:30:46;;;;;;;;;;;;;;;11.19;38.79;100208.50;5094149;28;19920;-64
2023/03/29 11:33:24;;;;;;;;;;;;;;;11.19;38.64;100199.97;5094050;28;19920;-64
2023/03/29 11:35:57;;;;;;;;;;;;;;;10.88;38.42;100203.22;5094103;28;19919;-64
2023/03/29 11:38:29;;;;;;;;;;;;;;;10.64;39.25;100209.88;5094033;28;19926;-65
2023/03/29 11:41:00;;;;;;;;;;;;;;;10.53;39.34;100202.97;5093952;28;19967;-64
2023/03/29 11:43:33;;;;;;;;;;;;;;;10.66;39.52;100195.41;5094033;28;19920;-64
2023/03/29 11:46:08;;;;;;;;;;;;;;;10.73;39.61;100201.41;5093903;28;20010;-64
2023/03/29 11:48:41;;;;;;;;;;;;;;;10.52;39.61;100199.56;5094011;28;19935;-64
2023/03/29 11:51:13;;;;;;;;;;;;;;;10.32;39.67;100196.00;5093981;28;20395;-64
2023/03/29 11:53:47;;;;;;;;;;;;;;;10.23;39.35;100195.91;5094446;28;20001;-63
2023/03/29 11:56:17;;;;;;;;;;;;;;;10.19;39.35;100186.53;5093822;28;19920;-64
2023/03/29 11:58:48;;;;;;;;;;;;;;;10.05;39.09;100185.53;5093843;28;19920;-65
2023/03/29 12:01:25;;;;;;;;;;;;;;;10.14;38.99;100180.53;5094020;28;20376;-64
2023/03/29 12:03:55;;;;;;;;;;;;;;;10.23;39.63;100183.16;5096468;28;20450;-64
2023/03/29 12:06:28;;;;;;;;;;;;;;;10.15;39.55;100177.13;5097863;28;19951;-65
2023/03/29 12:09:01;;;;;;;;;;;;;;;10.10;39.66;100178.78;5101919;28;20267;-64
2023/03/29 12:11:31;;;;;;;;;;;;;;;10.16;39.96;100178.84;5097958;28;19920;-63
2023/03/29 12:14:02;;;;;;;;;;;;;;;10.04;40.24;100177.00;5098304;28;20262;-63
2023/03/29 12:16:34;;;;;;;;;;;;;;;10.17;40.40;100175.47;5098047;28;19927;-64
2023/03/29 12:19:05;;;;;;;;;;;;;;;10.07;39.87;100173.63;5098066;28;19969;-64
2023/03/29 12:21:35;;;;;;;;;;;;;;;10.00;40.21;100169.31;5096584;28;20033;-65
2023/03/29 12:24:04;;;;;;;;;;;;;;;9.89;40.03;100168.34;5097721;28;20377;-65
2023/03/29 12:26:45;;;;;;;;;;;;;;;9.86;41.15;100164.06;5097054;28;19951;-65
2023/03/29 12:29:23;;;;;;;;;;;;;;;9.82;40.57;100170.00;5097470;28;19927;-64
2023/03/29 12:31:56;;;;;;;;;;;;;;;9.79;40.36;100166.56;5098137;28;19924;-65
2023/03/29 12:34:38;;;;;;;;;;;;;;;9.87;40.75;100154.72;5097268;28;19927;-65
2023/03/29 12:37:24;;;;;;;;;;;;;;;9.83;40.54;100148.78;5097270;28;19920;-65
2023/03/29 12:40:12;;;;;;;;;;;;;;;9.89;41.12;100153.03;5096030;28;19947;-65
2023/03/29 12:42:52;;;;;;;;;;;;;;;10.01;41.06;100153.16;5096994;28;20003;-64
2023/03/29 12:45:34;;;;;;;;;;;;;;;10.08;40.43;100144.72;5097467;28;19928;-64
2023/03/29 12:48:04;;;;;;;;;;;;;;;10.18;40.11;100146.56;5096831;28;19920;-65
2023/03/29 12:50:34;;;;;;;;;;;;;;;10.23;39.44;100139.78;5097934;28;19969;-64
2023/03/29 12:53:04;;;;;;;;;;;;;;;10.21;39.86;100138.06;5097299;28;19920;-64
2023/03/29 12:55:34;;;;;;;;;;;;;;;10.32;39.95;100137.31;5097193;28;19920;-64
2023/03/29 12:58:05;;;;;;;;;;;;;;;10.40;39.47;100138.22;5096896;28;19920;-64
2023/03/29 13:00:42;;;;;;;;;;;;;;;10.58;39.38;100127.31;5099681;28;19919;-64
2023/03/29 13:03:21;;;;;;;;;;;;;;;10.58;39.24;100123.03;5096718;28;19927;-64
2023/03/29 13:06:01;;;;;;;;;;;;;;;10.29;39.25;100127.09;5099875;28;19926;-65
2023/03/29 13:08:34;;;;;;;;;;;;;;;9.97;39.16;100120.84;5102984;28;19926;-64
2023/03/29 13:11:03;;;;;;;;;;;;;;;9.88;40.32;100110.56;5102134;28;20323;-64
2023/03/29 13:13:33;;;;;;;;;;;;;;;10.05;40.40;100114.13;5098645;28;19954;-64